createdAt,value
2019-05-18T00:01:08.372Z,7.90
2019-05-18T00:03:45.165Z,7.90
2019-05-18T00:06:19.065Z,7.90
2019-05-18T00:08:53.546Z,7.90
2019-05-18T00:11:28.354Z,7.90
2019-05-18T00:14:02.218Z,7.90
2019-05-18T00:16:34.766Z,7.90
2019-05-18T00:19:08.310Z,7.80
2019-05-18T00:21:41.637Z,7.80
2019-05-18T00:24:13.644Z,7.80
2019-05-18T00:26:48.181Z,7.80
2019-05-18T00:29:19.665Z,7.80
2019-05-18T00:31:56.168Z,7.80
2019-05-18T00:34:26.913Z,7.80
2019-05-18T00:36:59.873Z,7.70
2019-05-18T00:39:35.986Z,7.70
2019-05-18T00:42:09.055Z,7.70
2019-05-18T00:44:49.124Z,7.70
2019-05-18T00:47:23.669Z,7.70
2019-05-18T00:49:56.222Z,7.70
2019-05-18T00:52:28.717Z,7.60
2019-05-18T00:55:02.265Z,7.60
2019-05-18T00:57:34.309Z,7.60
2019-05-18T01:00:07.065Z,7.60
2019-05-18T01:02:40.061Z,7.60
2019-05-18T01:05:19.009Z,7.60
2019-05-18T01:07:53.661Z,7.60
2019-05-18T01:10:26.208Z,7.60
2019-05-18T01:12:58.742Z,7.70
2019-05-18T01:15:32.884Z,7.60
2019-05-18T01:18:04.509Z,7.50
2019-05-18T01:20:35.242Z,7.20
2019-05-18T01:23:07.191Z,7.10
2019-05-18T01:25:39.605Z,7.20
2019-05-18T01:28:14.980Z,7.20
2019-05-18T01:30:51.758Z,7.30
2019-05-18T01:33:28.680Z,7.30
2019-05-18T01:36:10.584Z,7.20
2019-05-18T01:38:41.478Z,7.30
2019-05-18T01:41:32.018Z,7.40
2019-05-18T01:44:08.825Z,7.30
2019-05-18T01:46:39.317Z,7.40
2019-05-18T01:49:14.253Z,7.40
2019-05-18T01:51:47.351Z,7.30
2019-05-18T01:54:21.807Z,7.30
2019-05-18T01:56:57.757Z,7.30
2019-05-18T01:59:33.046Z,7.30
2019-05-18T02:02:04.513Z,7.30
2019-05-18T02:04:38.782Z,7.30
2019-05-18T02:07:11.347Z,7.30
2019-05-18T02:09:46.013Z,7.20
2019-05-18T02:12:18.341Z,7.30
2019-05-18T02:14:54.024Z,7.20
2019-05-18T02:17:26.740Z,7.20
2019-05-18T02:20:00.080Z,7.20
2019-05-18T02:22:29.772Z,7.30
2019-05-18T02:25:04.420Z,7.40
2019-05-18T02:27:36.441Z,7.20
2019-05-18T02:30:08.689Z,7.20
2019-05-18T02:32:44.508Z,6.90
2019-05-18T02:35:18.143Z,7.00
2019-05-18T02:37:50.714Z,7.20
2019-05-18T02:40:26.462Z,7.30
2019-05-18T02:43:02.002Z,7.40
2019-05-18T02:45:31.625Z,7.50
2019-05-18T02:48:01.851Z,7.60
2019-05-18T02:50:35.211Z,7.60
2019-05-18T02:53:08.805Z,7.70
2019-05-18T02:55:43.842Z,7.60
2019-05-18T02:58:21.864Z,7.70
2019-05-18T03:00:54.742Z,7.70
2019-05-18T03:03:30.054Z,7.90
2019-05-18T03:06:21.097Z,8.10
2019-05-18T03:08:56.852Z,8.20
2019-05-18T03:11:29.380Z,8.40
2019-05-18T03:14:01.222Z,8.70
2019-05-18T03:16:46.078Z,9.00
2019-05-18T03:19:21.977Z,9.20
2019-05-18T03:21:54.390Z,9.20
2019-05-18T03:24:28.176Z,9.30
2019-05-18T03:26:58.837Z,9.30
2019-05-18T03:29:32.208Z,9.30
2019-05-18T03:32:07.666Z,9.30
2019-05-18T03:34:40.025Z,9.40
2019-05-18T03:37:10.594Z,9.40
2019-05-18T03:39:41.949Z,9.50
2019-05-18T03:42:12.421Z,9.60
2019-05-18T03:44:43.206Z,9.60
2019-05-18T03:47:14.751Z,9.60
2019-05-18T03:49:46.504Z,9.60
2019-05-18T03:52:20.560Z,9.60
2019-05-18T03:54:57.220Z,9.50
2019-05-18T03:57:30.410Z,9.50
2019-05-18T04:00:05.355Z,9.60
2019-05-18T04:02:38.921Z,9.60
2019-05-18T04:05:11.416Z,9.70
2019-05-18T04:07:47.440Z,9.80
2019-05-18T04:10:21.837Z,9.80
2019-05-18T04:12:52.827Z,9.80
2019-05-18T04:15:28.297Z,9.90
2019-05-18T04:18:00.440Z,10.00
2019-05-18T04:20:30.352Z,10.10
2019-05-18T04:22:59.867Z,10.10
2019-05-18T04:25:33.690Z,10.10
2019-05-18T04:28:06.442Z,10.30
2019-05-18T04:30:36.851Z,10.60
2019-05-18T04:33:08.385Z,10.70
2019-05-18T04:35:41.763Z,11.10
2019-05-18T04:38:12.762Z,11.60
2019-05-18T04:40:47.177Z,11.70
2019-05-18T04:43:19.877Z,11.70
2019-05-18T04:45:59.032Z,11.90
2019-05-18T04:48:34.568Z,11.70
2019-05-18T04:51:07.161Z,11.80
2019-05-18T04:53:42.398Z,11.70
2019-05-18T04:56:23.871Z,11.60
2019-05-18T04:58:56.205Z,11.60
2019-05-18T05:01:29.191Z,12.00
2019-05-18T05:04:05.031Z,12.60
2019-05-18T05:06:37.643Z,12.60
2019-05-18T05:09:10.214Z,13.00
2019-05-18T05:11:44.627Z,13.00
2019-05-18T05:14:16.588Z,12.90
2019-05-18T05:16:47.706Z,12.70
2019-05-18T05:19:16.613Z,12.50
2019-05-18T05:21:46.961Z,12.40
2019-05-18T05:24:19.027Z,12.70
2019-05-18T05:26:50.587Z,13.00
2019-05-18T05:29:22.590Z,13.40
2019-05-18T05:31:54.135Z,13.60
2019-05-18T05:34:26.556Z,13.70
2019-05-18T05:37:00.967Z,13.70
2019-05-18T05:39:35.380Z,14.00
2019-05-18T05:42:07.152Z,14.40
2019-05-18T05:44:41.205Z,14.40
2019-05-18T05:47:14.697Z,13.90
2019-05-18T05:49:47.371Z,13.80
2019-05-18T05:52:19.405Z,13.90
2019-05-18T05:54:49.055Z,14.10
2019-05-18T05:57:26.501Z,14.00
2019-05-18T05:59:59.163Z,14.40
2019-05-18T06:02:34.793Z,14.40
2019-05-18T06:05:06.527Z,14.70
2019-05-18T06:07:39.918Z,14.60
2019-05-18T06:10:15.661Z,14.90
2019-05-18T06:12:49.152Z,14.40
2019-05-18T06:15:25.196Z,14.50
2019-05-18T06:18:00.871Z,14.10
2019-05-18T06:20:31.122Z,13.70
2019-05-18T06:23:06.599Z,13.40
2019-05-18T06:25:38.986Z,13.30
2019-05-18T06:28:12.456Z,13.20
2019-05-18T06:30:44.803Z,13.30
2019-05-18T06:33:18.454Z,13.70
2019-05-18T06:35:54.772Z,13.70
2019-05-18T06:38:30.222Z,13.80
2019-05-18T06:41:05.722Z,14.00
2019-05-18T06:43:36.493Z,14.30
2019-05-18T06:46:14.876Z,14.10
2019-05-18T06:48:48.308Z,14.00
2019-05-18T06:51:19.114Z,13.60
2019-05-18T06:53:51.571Z,13.40
2019-05-18T06:56:26.068Z,13.10
2019-05-18T06:58:59.789Z,13.10
2019-05-18T07:01:32.380Z,13.20
2019-05-18T07:04:05.887Z,13.70
2019-05-18T07:06:41.427Z,14.00
2019-05-18T07:09:16.089Z,14.30
2019-05-18T07:14:26.646Z,14.40
2019-05-18T07:17:00.681Z,14.10
2019-05-18T07:19:34.374Z,14.10
2019-05-18T07:22:04.483Z,13.80
2019-05-18T07:24:41.110Z,13.40
2019-05-18T07:27:12.620Z,13.20
2019-05-18T07:29:45.023Z,13.50
2019-05-18T07:32:24.757Z,13.50
2019-05-18T07:34:56.291Z,13.80
2019-05-18T07:37:31.209Z,14.10
2019-05-18T07:40:03.003Z,13.90
2019-05-18T07:42:36.593Z,13.90
2019-05-18T07:45:09.993Z,13.80
2019-05-18T07:47:49.897Z,13.90
2019-05-18T07:50:30.090Z,14.20
2019-05-18T07:53:00.786Z,14.60
2019-05-18T07:55:32.749Z,14.40
2019-05-18T07:58:03.946Z,14.60
2019-05-18T08:00:37.393Z,15.00
2019-05-18T08:03:10.118Z,15.50
2019-05-18T08:05:42.737Z,15.20
2019-05-18T08:08:18.347Z,14.90
2019-05-18T08:10:51.729Z,14.90
2019-05-18T08:13:24.581Z,15.10
2019-05-18T08:16:00.252Z,15.20
2019-05-18T08:18:34.569Z,15.30
2019-05-18T08:21:08.973Z,15.60
2019-05-18T08:23:45.914Z,15.60
2019-05-18T08:26:20.548Z,15.70
2019-05-18T08:28:58.489Z,15.30
2019-05-18T08:31:32.462Z,15.20
2019-05-18T08:34:04.067Z,15.30
2019-05-18T08:36:34.649Z,15.00
2019-05-18T08:39:05.895Z,15.00
2019-05-18T08:41:59.561Z,15.70
2019-05-18T08:44:32.446Z,15.90
2019-05-18T08:47:04.919Z,15.90
2019-05-18T08:49:37.944Z,15.70
2019-05-18T08:52:16.569Z,15.80
2019-05-18T08:54:48.390Z,16.20
2019-05-18T08:57:24.584Z,15.60
2019-05-18T08:59:57.046Z,15.60
2019-05-18T09:02:33.786Z,15.60
2019-05-18T09:05:06.396Z,15.10
2019-05-18T09:07:40.003Z,15.20
2019-05-18T09:10:17.333Z,15.20
2019-05-18T09:12:51.404Z,15.20
2019-05-18T09:15:28.247Z,15.50
2019-05-18T09:18:04.855Z,15.30
2019-05-18T09:20:37.812Z,15.30
2019-05-18T09:23:11.443Z,15.60
2019-05-18T09:25:42.749Z,15.90
2019-05-18T09:28:19.324Z,15.90
2019-05-18T09:30:51.888Z,15.60
2019-05-18T09:33:24.389Z,15.40
2019-05-18T09:35:58.011Z,15.20
2019-05-18T09:38:33.186Z,15.40
2019-05-18T09:41:09.538Z,15.60
2019-05-18T09:43:42.059Z,16.00
2019-05-18T09:46:13.326Z,16.10
2019-05-18T09:48:42.940Z,16.20
2019-05-18T09:51:13.676Z,16.10
2019-05-18T09:53:51.556Z,15.70
2019-05-18T09:56:21.470Z,16.10
2019-05-18T09:58:52.948Z,15.80
2019-05-18T10:01:23.114Z,15.90
2019-05-18T10:03:53.973Z,16.90
2019-05-18T10:06:27.091Z,16.90
2019-05-18T10:09:01.665Z,16.30
2019-05-18T10:11:38.506Z,15.30
2019-05-18T10:14:07.618Z,14.90
2019-05-18T10:16:42.153Z,15.50
2019-05-18T10:22:05.111Z,15.50
2019-05-18T10:24:37.961Z,15.90
2019-05-18T10:27:14.551Z,16.10
2019-05-18T10:29:49.835Z,16.40
2019-05-18T10:32:26.409Z,16.90
2019-05-18T10:35:00.293Z,16.00
2019-05-18T10:37:34.319Z,16.00
2019-05-18T10:40:06.892Z,16.70
2019-05-18T10:42:40.795Z,17.10
2019-05-18T10:45:16.398Z,17.10
2019-05-18T10:47:48.733Z,17.20
2019-05-18T10:50:22.346Z,16.90
2019-05-18T10:52:54.227Z,17.10
2019-05-18T10:55:25.176Z,16.10
2019-05-18T10:57:58.776Z,15.60
2019-05-18T11:00:33.589Z,15.60
2019-05-18T11:03:08.373Z,15.60
2019-05-18T11:05:45.074Z,16.30
2019-05-18T11:08:17.631Z,15.90
2019-05-18T11:10:49.778Z,15.50
2019-05-18T11:13:23.674Z,15.50
2019-05-18T11:15:56.211Z,15.40
2019-05-18T11:18:31.721Z,15.40
2019-05-18T11:21:06.185Z,15.80
2019-05-18T11:23:44.187Z,16.30
2019-05-18T11:26:12.823Z,15.40
2019-05-18T11:28:46.621Z,15.70
2019-05-18T11:31:18.538Z,15.10
2019-05-18T11:33:50.217Z,15.50
2019-05-18T11:36:22.210Z,16.20
2019-05-18T11:38:56.333Z,16.00
2019-05-18T11:41:29.131Z,16.70
2019-05-18T11:44:00.780Z,16.90
2019-05-18T11:46:32.251Z,17.30
2019-05-18T11:49:09.134Z,17.70
2019-05-18T11:51:43.150Z,17.10
2019-05-18T11:54:14.101Z,18.00
2019-05-18T11:56:49.977Z,17.80
2019-05-18T11:59:23.412Z,17.10
2019-05-18T12:01:54.933Z,16.60
2019-05-18T12:04:29.259Z,16.50
2019-05-18T12:07:00.989Z,17.50
2019-05-18T12:09:31.260Z,17.50
2019-05-18T12:12:08.022Z,17.70
2019-05-18T12:14:43.451Z,17.10
2019-05-18T12:17:15.979Z,17.50
2019-05-18T12:19:48.256Z,18.00
2019-05-18T12:22:19.601Z,18.20
2019-05-18T12:24:52.128Z,18.10
2019-05-18T12:27:24.051Z,18.90
2019-05-18T12:29:58.532Z,18.40
2019-05-18T12:32:32.345Z,17.90
2019-05-18T12:35:04.491Z,18.00
2019-05-18T12:37:43.256Z,18.10
2019-05-18T12:40:17.661Z,17.80
2019-05-18T12:42:51.225Z,17.40
2019-05-18T12:45:24.181Z,17.70
2019-05-18T12:47:58.020Z,17.70
2019-05-18T12:50:31.870Z,16.90
2019-05-18T12:53:04.735Z,16.70
2019-05-18T12:55:37.002Z,17.40
2019-05-18T12:58:09.482Z,17.60
2019-05-18T13:00:43.311Z,17.70
2019-05-18T13:03:18.256Z,17.00
2019-05-18T13:05:49.639Z,16.50
2019-05-18T13:08:25.371Z,17.20
2019-05-18T13:10:58.770Z,17.40
2019-05-18T13:13:28.732Z,17.50
2019-05-18T13:15:59.036Z,18.10
2019-05-18T13:18:30.806Z,18.10
2019-05-18T13:21:03.352Z,18.70
2019-05-18T13:23:37.786Z,18.40
2019-05-18T13:26:11.339Z,18.10
2019-05-18T13:28:42.922Z,18.00
2019-05-18T13:31:14.556Z,17.40
2019-05-18T13:33:46.675Z,18.00
2019-05-18T13:36:17.669Z,18.80
2019-05-18T13:38:50.022Z,18.20
2019-05-18T13:41:24.616Z,17.40
2019-05-18T13:43:57.041Z,17.70
2019-05-18T13:46:29.631Z,17.70
2019-05-18T13:49:02.612Z,18.00
2019-05-18T13:51:34.700Z,18.10
2019-05-18T13:54:09.912Z,18.10
2019-05-18T13:56:40.143Z,17.80
2019-05-18T13:59:11.273Z,18.00
2019-05-18T14:01:44.315Z,17.70
2019-05-18T14:04:16.100Z,16.60
2019-05-18T14:06:52.277Z,16.30
2019-05-18T14:09:25.310Z,16.80
2019-05-18T14:11:59.617Z,17.40
2019-05-18T14:14:34.507Z,17.30
2019-05-18T14:17:05.241Z,17.10
2019-05-18T14:19:41.344Z,16.70
2019-05-18T14:22:19.269Z,16.60
2019-05-18T14:24:53.405Z,16.20
2019-05-18T14:27:28.032Z,15.70
2019-05-18T14:30:05.818Z,16.30
2019-05-18T14:32:38.871Z,16.20
2019-05-18T14:35:12.208Z,16.40
2019-05-18T14:37:44.245Z,17.10
2019-05-18T14:40:21.265Z,17.00
2019-05-18T14:42:54.731Z,16.80
2019-05-18T14:45:28.313Z,17.30
2019-05-18T14:48:03.775Z,17.50
2019-05-18T14:50:39.201Z,17.60
2019-05-18T14:53:11.038Z,17.40
2019-05-18T14:55:44.693Z,17.80
2019-05-18T14:58:21.177Z,16.80
2019-05-18T15:00:53.801Z,17.10
2019-05-18T15:03:26.454Z,17.30
2019-05-18T15:05:57.951Z,17.40
2019-05-18T15:08:33.250Z,17.70
2019-05-18T15:11:04.178Z,18.40
2019-05-18T15:13:39.568Z,17.70
2019-05-18T15:16:15.493Z,16.90
2019-05-18T15:18:50.154Z,15.80
2019-05-18T15:21:25.470Z,16.10
2019-05-18T15:24:00.127Z,16.30
2019-05-18T15:26:31.089Z,16.30
2019-05-18T15:29:02.147Z,17.00
2019-05-18T15:31:35.228Z,17.30
2019-05-18T15:34:10.072Z,16.80
2019-05-18T15:36:44.569Z,16.50
2019-05-18T15:39:15.504Z,15.60
2019-05-18T15:41:48.058Z,15.50
2019-05-18T15:44:23.513Z,15.20
2019-05-18T15:46:58.084Z,15.10
2019-05-18T15:49:30.681Z,15.10
2019-05-18T15:52:03.401Z,15.30
2019-05-18T15:54:37.119Z,15.70
2019-05-18T15:57:11.869Z,16.30
2019-05-18T15:59:46.673Z,15.90
2019-05-18T16:02:21.405Z,15.80
2019-05-18T16:04:52.596Z,16.00
2019-05-18T16:07:24.408Z,15.60
2019-05-18T16:10:05.356Z,15.90
2019-05-18T16:12:36.357Z,15.80
2019-05-18T16:15:13.421Z,15.60
2019-05-18T16:17:44.983Z,15.50
2019-05-18T16:20:17.554Z,16.00
2019-05-18T16:22:49.468Z,16.50
2019-05-18T16:25:24.206Z,16.90
2019-05-18T16:28:00.149Z,17.00
2019-05-18T16:30:33.614Z,16.70
2019-05-18T16:33:07.427Z,16.80
2019-05-18T16:35:56.415Z,16.70
2019-05-18T16:38:29.481Z,16.90
2019-05-18T16:41:03.024Z,16.20
2019-05-18T16:43:37.469Z,16.00
2019-05-18T16:46:09.010Z,15.70
2019-05-18T16:48:41.401Z,15.50
2019-05-18T16:51:13.964Z,16.10
2019-05-18T16:53:49.404Z,16.60
2019-05-18T16:56:33.339Z,16.40
2019-05-18T16:58:54.618Z,16.10
2019-05-18T17:01:30.352Z,16.10
2019-05-18T17:04:02.855Z,15.90
2019-05-18T17:06:36.451Z,15.30
2019-05-18T17:09:12.792Z,15.00
2019-05-18T17:11:47.967Z,15.40
2019-05-18T17:14:18.657Z,16.00
2019-05-18T17:16:50.822Z,16.20
2019-05-18T17:19:22.413Z,16.50
2019-05-18T17:21:54.385Z,16.50
2019-05-18T17:24:27.804Z,15.80
2019-05-18T17:27:02.214Z,15.60
2019-05-18T17:29:35.889Z,16.10
2019-05-18T17:32:10.797Z,16.00
2019-05-18T17:34:45.367Z,16.00
2019-05-18T17:37:17.969Z,15.70
2019-05-18T17:39:48.891Z,15.80
2019-05-18T17:42:21.965Z,15.30
2019-05-18T17:44:59.344Z,15.00
2019-05-18T17:47:35.147Z,14.80
2019-05-18T17:50:12.184Z,14.30
2019-05-18T17:52:44.872Z,14.10
2019-05-18T17:55:17.370Z,14.20
2019-05-18T17:57:48.916Z,14.40
2019-05-18T18:00:19.998Z,14.40
2019-05-18T18:02:56.234Z,14.60
2019-05-18T18:05:26.777Z,14.50
2019-05-18T18:07:56.954Z,15.00
2019-05-18T18:10:31.495Z,15.00
2019-05-18T18:13:04.033Z,14.50
2019-05-18T18:15:35.576Z,14.30
2019-05-18T18:18:08.387Z,14.00
2019-05-18T18:20:40.812Z,14.20
2019-05-18T18:23:17.309Z,14.40
2019-05-18T18:25:53.135Z,14.50
2019-05-18T18:28:32.220Z,14.50
2019-05-18T18:31:06.689Z,14.40
2019-05-18T18:33:40.413Z,14.10
2019-05-18T18:36:13.431Z,14.50
2019-05-18T18:38:47.617Z,14.80
2019-05-18T18:41:20.319Z,15.00
2019-05-18T18:43:55.933Z,15.10
2019-05-18T18:46:27.992Z,15.00
2019-05-18T18:48:58.097Z,14.80
2019-05-18T18:51:30.877Z,14.60
2019-05-18T18:54:04.154Z,14.50
2019-05-18T18:56:39.722Z,14.40
2019-05-18T18:59:18.434Z,14.20
2019-05-18T19:01:48.652Z,13.70
2019-05-18T19:04:18.407Z,13.70
2019-05-18T19:06:48.517Z,13.60
2019-05-18T19:09:22.211Z,13.50
2019-05-18T19:11:57.016Z,13.30
2019-05-18T19:14:32.088Z,13.10
2019-05-18T19:17:08.693Z,12.90
2019-05-18T19:19:40.391Z,12.90
2019-05-18T19:22:13.927Z,12.80
2019-05-18T19:24:48.628Z,12.80
2019-05-18T19:27:20.141Z,12.70
2019-05-18T19:29:53.922Z,12.90
2019-05-18T19:32:27.580Z,12.70
2019-05-18T19:35:04.567Z,13.00
2019-05-18T19:37:38.076Z,13.00
2019-05-18T19:40:15.348Z,13.00
2019-05-18T19:42:50.286Z,13.10
2019-05-18T19:45:24.720Z,13.00
2019-05-18T19:47:59.342Z,13.10
2019-05-18T19:50:34.421Z,13.20
2019-05-18T19:53:08.276Z,13.40
2019-05-18T19:55:44.305Z,13.30
2019-05-18T19:58:16.105Z,13.00
2019-05-18T20:00:48.857Z,12.30
2019-05-18T20:03:22.408Z,12.30
2019-05-18T20:05:53.183Z,12.50
2019-05-18T20:08:28.719Z,12.70
2019-05-18T20:10:58.997Z,12.70
2019-05-18T20:13:29.002Z,12.70
2019-05-18T20:16:01.410Z,12.80
2019-05-18T20:18:32.947Z,12.80
2019-05-18T20:21:06.348Z,12.70
2019-05-18T20:23:44.936Z,12.70
2019-05-18T20:26:17.915Z,12.60
2019-05-18T20:28:52.274Z,12.20
2019-05-18T20:31:32.542Z,12.30
2019-05-18T20:34:04.746Z,12.30
2019-05-18T20:36:37.370Z,12.30
2019-05-18T20:39:14.671Z,12.30
2019-05-18T20:41:47.613Z,12.30
2019-05-18T20:44:18.659Z,12.30
2019-05-18T20:46:54.309Z,12.20
2019-05-18T20:49:27.974Z,12.10
2019-05-18T20:52:05.670Z,12.20
2019-05-18T20:54:40.629Z,12.00
2019-05-18T20:57:13.949Z,12.10
2019-05-18T20:59:45.409Z,12.00
2019-05-18T21:02:20.116Z,11.90
2019-05-18T21:04:51.283Z,11.80
2019-05-18T21:07:23.286Z,11.80
2019-05-18T21:10:00.640Z,11.80
2019-05-18T21:12:34.225Z,11.80
2019-05-18T21:15:07.116Z,11.70
2019-05-18T21:17:39.951Z,11.70
2019-05-18T21:20:13.193Z,11.70
2019-05-18T21:22:46.180Z,11.70
2019-05-18T21:25:23.164Z,11.60
2019-05-18T21:27:57.555Z,11.60
2019-05-18T21:30:33.706Z,11.60
2019-05-18T21:33:08.974Z,11.50
2019-05-18T21:35:40.814Z,11.50
2019-05-18T21:38:13.315Z,11.60
2019-05-18T21:40:47.085Z,11.50
2019-05-18T21:43:28.902Z,11.30
2019-05-18T21:46:01.823Z,11.40
2019-05-18T21:48:33.460Z,11.40
2019-05-18T21:51:07.186Z,11.50
2019-05-18T21:53:43.850Z,11.50
2019-05-18T21:56:15.998Z,11.50
2019-05-18T21:58:48.290Z,11.60
2019-05-18T22:01:22.972Z,11.40
2019-05-18T22:03:57.763Z,11.30
2019-05-18T22:06:29.245Z,11.40
2019-05-18T22:09:00.409Z,11.30
2019-05-18T22:11:38.131Z,11.20
2019-05-18T22:14:09.586Z,11.30
2019-05-18T22:16:46.375Z,11.30
2019-05-18T22:19:20.053Z,11.30
2019-05-18T22:21:54.486Z,11.30
2019-05-18T22:24:46.732Z,11.30
2019-05-18T22:27:23.976Z,11.30
2019-05-18T22:29:57.506Z,11.30
2019-05-18T22:32:30.196Z,11.30
2019-05-18T22:35:02.455Z,11.30
2019-05-18T22:37:35.377Z,11.30
2019-05-18T22:40:05.578Z,11.30
2019-05-18T22:42:41.558Z,11.20
2019-05-18T22:45:12.829Z,11.10
2019-05-18T22:47:44.994Z,11.10
2019-05-18T22:50:16.850Z,11.10
2019-05-18T22:52:49.240Z,11.10
2019-05-18T22:55:41.737Z,11.20
2019-05-18T22:58:16.271Z,11.20
2019-05-18T23:00:50.951Z,11.30
2019-05-18T23:03:21.457Z,11.30
2019-05-18T23:05:54.449Z,11.30
2019-05-18T23:08:26.961Z,11.30
2019-05-18T23:11:02.499Z,11.40
2019-05-18T23:13:34.192Z,11.40
2019-05-18T23:16:04.489Z,11.40
2019-05-18T23:18:39.610Z,11.40
2019-05-18T23:21:12.131Z,11.30
2019-05-18T23:23:44.056Z,11.30
2019-05-18T23:26:19.511Z,11.10
2019-05-18T23:28:50.382Z,11.10
2019-05-18T23:31:25.136Z,11.10
2019-05-18T23:33:56.057Z,11.10
2019-05-18T23:36:32.124Z,11.20
2019-05-18T23:39:08.479Z,11.10
2019-05-18T23:41:38.587Z,11.00
2019-05-18T23:44:09.482Z,11.00
2019-05-18T23:46:41.156Z,11.00
2019-05-18T23:49:11.771Z,11.00
2019-05-18T23:51:41.396Z,11.00
2019-05-18T23:54:14.009Z,11.00
2019-05-18T23:56:45.630Z,11.00
2019-05-18T23:59:17.655Z,11.10
